Главная страница
METAR-TAF:

METAR-TAF

Аэропорты :

Порт-оф-Спейн, Тринидад, Тринидад и Тобаго

широта: 10-37N, долгота: 061-21W, высота над уровнем моря: 12 м

Текущие метеонаблюдения

Эта сводка был подготовлена 1 час и 3 минут назад, в 12:00 UTC
Ветер 8 Узел от восточно-юго-восточный
Температура 28°C
Влажность 74%
Давление 1014 hPa
Видимость 10 км и более
небольшая облачность на высоте 1800 фута

METAR: TTPP 231200Z 11008KT 9999 FEW018 28/23 Q1014 NOSIG

Время: 09:03 (13:03 UTC)

Прогноз

Эта сводка был подготовлена 9 часа и 3 минут назад, в 04:00 UTC
Прогноз действительный с 23-го 06 UTC до 24-го 06 UTC
Ветер 5 Узел от восточный
Видимость 10 км и более
небольшая облачность на высоте 1800 фута
изменения
С 23-го 11 UTC до 23-го 13 UTC
Ветер 15 Узел от восточный
Видимость 10 км и более
Отдельные облака на высоте 2000 фута
изменения
между 09 и 00 UTC
Отдельные облака на высоте 1800 фута

TAF: TTPP 230400Z 2306/2406 09005KT 9999 FEW018 BECMG 2311/2313 09015KT 9999 SCT020 BECMG 09005KT SCT018

Метеонаблюдения и прогнозы для более 4000 аэропортов (сводки METAR и TAF).

Имеющиеся станции представлены на карте желтыми и красными точками.

Чтобы увидеть название станции, наведите на нее мышь.

Затем щелкните, чтобы увидеть метеонаблюдения и метеопрогнозы.

Управление картой: чтобы увеличить масштаб, щелкните зеленые кнопки с черным крестиком; чтобы уменьшить масштаб, щелкните зеленую кнопку с тире; для просмотра соседних карт щелкайте зеленые стрелки.


METAR-TAF: